Time;durP1;ratioP1;P1;durP2;ratioP2;P2;SDS_P1;SDS_P2;PMS_P1;PMS_P2;Temp;Humidity;BMP_temperature;BMP_pressure;BME280_temperature;BME280_humidity;BME280_pressure;Samples;Min_cycle;Max_cycle;Signal;HPM_P1;HPM_P2
2022/11/03 00:01:32;;;;;;;;;;;16.90;92.60;;;;;;5113243;28;20008;-88
2022/11/03 00:03:58;;;;;;;;;;;16.80;92.50;;;;;;5111218;28;19973;-88
2022/11/03 00:06:23;;;;;;;;;;;16.90;92.60;;;;;;5109695;28;20173;-88
2022/11/03 00:08:49;;;;;;;;;;;16.80;92.60;;;;;;5111904;28;19962;-88
2022/11/03 00:11:15;;;;;;;;;;;16.80;92.60;;;;;;5113614;28;19969;-88
2022/11/03 00:13:42;;;;;;;;;;;16.80;92.60;;;;;;5113215;28;19932;-89
2022/11/03 00:16:08;;;;;;;;;;;16.80;92.50;;;;;;5113926;28;19922;-89
2022/11/03 00:18:35;;;;;;;;;;;16.80;92.80;;;;;;5113667;28;19912;-89
2022/11/03 00:21:01;;;;;;;;;;;16.80;92.50;;;;;;5113764;28;19998;-89
2022/11/03 00:23:28;;;;;;;;;;;16.80;92.50;;;;;;5113462;28;19918;-88
2022/11/03 00:25:54;;;;;;;;;;;16.80;92.40;;;;;;5113462;28;19908;-88
2022/11/03 00:28:20;;;;;;;;;;;16.80;92.40;;;;;;5111860;28;20280;-88
2022/11/03 00:30:46;;;;;;;;;;;16.80;92.40;;;;;;5114030;28;20014;-89
2022/11/03 00:33:12;;;;;;;;;;;16.80;92.40;;;;;;5113637;28;19916;-88
2022/11/03 00:35:37;;;;;;;;;;;16.80;92.40;;;;;;5112899;28;19915;-89
2022/11/03 00:38:03;;;;;;;;;;;16.80;92.40;;;;;;5112962;28;19927;-88
2022/11/03 00:40:29;;;;;;;;;;;16.80;92.40;;;;;;5116735;28;19908;-88
2022/11/03 00:42:54;;;;;;;;;;;16.80;92.30;;;;;;5117410;28;19911;-89
2022/11/03 00:45:20;;;;;;;;;;;16.70;92.30;;;;;;5119508;28;19908;-88
2022/11/03 00:50:32;;;;;;;;;;;16.70;92.20;;;;;;5118383;28;19968;-89
2022/11/03 00:52:58;;;;;;;;;;;16.70;92.20;;;;;;5117108;28;19924;-89
2022/11/03 00:55:23;;;;;;;;;;;16.70;92.30;;;;;;5117183;28;20005;-88
2022/11/03 00:57:51;;;;;;;;;;;16.70;92.20;;;;;;5117129;28;19908;-89
2022/11/03 01:00:17;;;;;;;;;;;16.70;92.20;;;;;;5118616;28;19908;-88
2022/11/03 01:02:43;;;;;;;;;;;16.70;92.20;;;;;;5117989;28;19915;-90
2022/11/03 01:07:53;;;;;;;;;;;16.70;92.20;;;;;;5118485;28;19918;-89
2022/11/03 01:10:18;;;;;;;;;;;16.70;92.20;;;;;;5118672;28;20002;-88
2022/11/03 01:12:44;;;;;;;;;;;16.70;92.20;;;;;;5118946;28;19907;-88
2022/11/03 01:15:10;;;;;;;;;;;16.70;92.10;;;;;;5119150;28;19915;-88
2022/11/03 01:17:35;;;;;;;;;;;16.70;92.10;;;;;;5119313;28;19908;-88
2022/11/03 01:20:02;;;;;;;;;;;16.70;92.20;;;;;;5118506;28;19934;-88
2022/11/03 01:22:28;;;;;;;;;;;16.70;92.10;;;;;;5116877;28;19908;-88
2022/11/03 01:24:53;;;;;;;;;;;16.70;92.10;;;;;;5117605;28;20383;-88
2022/11/03 01:27:21;;;;;;;;;;;16.70;92.40;;;;;;5117351;28;19912;-88
2022/11/03 01:29:47;;;;;;;;;;;16.70;92.10;;;;;;5117367;28;19919;-88
2022/11/03 01:32:12;;;;;;;;;;;16.70;92.10;;;;;;5117802;28;19912;-88
2022/11/03 01:34:38;;;;;;;;;;;16.70;92.10;;;;;;5118086;28;20225;-90
2022/11/03 01:37:04;;;;;;;;;;;16.70;92.10;;;;;;5117735;28;19912;-89
2022/11/03 01:39:30;;;;;;;;;;;16.70;92.10;;;;;;5117742;28;19911;-88
2022/11/03 01:41:55;;;;;;;;;;;16.70;92.10;;;;;;5117923;28;19908;-88
2022/11/03 01:44:21;;;;;;;;;;;16.70;92.10;;;;;;5117691;28;20162;-88
2022/11/03 01:46:47;;;;;;;;;;;16.70;92.00;;;;;;5116407;28;20300;-88
2022/11/03 01:49:35;;;;;;;;;;;16.70;92.10;;;;;;5115092;28;19919;-89
2022/11/03 01:52:14;;;;;;;;;;;16.60;92.00;;;;;;5114605;28;19908;-88
2022/11/03 01:54:42;;;;;;;;;;;16.70;92.10;;;;;;5117136;28;19908;-89
2022/11/03 01:57:10;;;;;;;;;;;16.70;92.00;;;;;;5116401;28;20292;-89
2022/11/03 01:59:36;;;;;;;;;;;16.70;92.10;;;;;;5115940;28;19908;-88
2022/11/03 02:02:02;;;;;;;;;;;16.70;92.00;;;;;;5116716;28;19912;-88
2022/11/03 02:04:29;;;;;;;;;;;16.70;92.00;;;;;;5117343;28;19997;-88
2022/11/03 02:07:15;;;;;;;;;;;16.70;92.00;;;;;;5117213;28;19912;-88
2022/11/03 02:09:41;;;;;;;;;;;16.70;92.00;;;;;;5102555;28;20273;-90
2022/11/03 02:12:07;;;;;;;;;;;16.70;92.00;;;;;;5116481;28;20336;-90
2022/11/03 02:14:36;;;;;;;;;;;16.70;91.90;;;;;;5116762;28;19907;-91
2022/11/03 02:17:03;;;;;;;;;;;16.70;91.90;;;;;;5117191;28;19908;-90
2022/11/03 02:19:40;;;;;;;;;;;16.60;91.90;;;;;;5116779;28;19908;-90
2022/11/03 02:22:24;;;;;;;;;;;16.70;92.00;;;;;;5117223;28;20188;-90
2022/11/03 02:25:09;;;;;;;;;;;16.70;91.90;;;;;;5117548;28;20295;-91
2022/11/03 02:27:34;;;;;;;;;;;16.60;91.90;;;;;;5118522;28;19916;-90
2022/11/03 02:30:00;;;;;;;;;;;16.60;91.90;;;;;;5117395;28;19938;-89
2022/11/03 02:32:32;;;;;;;;;;;16.60;91.90;;;;;;5117275;28;19916;-90
2022/11/03 02:35:04;;;;;;;;;;;16.60;91.90;;;;;;5117412;28;19915;-91
2022/11/03 02:37:33;;;;;;;;;;;16.60;91.90;;;;;;5116461;28;19912;-91
2022/11/03 02:40:02;;;;;;;;;;;16.60;91.90;;;;;;5116289;28;20010;-89
2022/11/03 02:42:28;;;;;;;;;;;16.60;91.90;;;;;;5114777;28;20192;-91
2022/11/03 02:44:56;;;;;;;;;;;16.60;91.90;;;;;;5115735;28;19907;-90
2022/11/03 02:47:22;;;;;;;;;;;16.60;91.90;;;;;;5113962;28;19912;-90
2022/11/03 02:49:49;;;;;;;;;;;16.60;91.90;;;;;;5114435;28;19908;-91
2022/11/03 02:52:35;;;;;;;;;;;16.60;91.90;;;;;;5115688;28;19923;-91
2022/11/03 02:55:06;;;;;;;;;;;16.60;91.90;;;;;;5115782;28;19950;-90
2022/11/03 02:57:33;;;;;;;;;;;16.60;91.90;;;;;;5117557;28;20514;-90
2022/11/03 03:00:04;;;;;;;;;;;16.60;91.90;;;;;;5117420;28;20004;-90
2022/11/03 03:02:36;;;;;;;;;;;16.60;92.00;;;;;;5116461;28;19976;-90
2022/11/03 03:05:03;;;;;;;;;;;16.60;92.00;;;;;;5116767;28;19907;-90
2022/11/03 03:07:30;;;;;;;;;;;16.60;92.00;;;;;;5117049;28;19912;-90
2022/11/03 03:10:05;;;;;;;;;;;16.60;92.00;;;;;;5116623;28;19919;-90
2022/11/03 03:12:32;;;;;;;;;;;16.50;92.00;;;;;;5116262;28;19991;-90
2022/11/03 03:14:58;;;;;;;;;;;16.50;92.00;;;;;;5100156;28;19947;-90
2022/11/03 03:17:40;;;;;;;;;;;16.50;92.10;;;;;;5116653;28;19912;-89
2022/11/03 03:20:25;;;;;;;;;;;16.50;92.10;;;;;;5116616;28;20177;-90
2022/11/03 03:22:55;;;;;;;;;;;16.60;92.20;;;;;;5117011;28;19915;-91
2022/11/03 03:25:39;;;;;;;;;;;16.60;92.10;;;;;;5117924;28;19908;-89
2022/11/03 03:28:08;;;;;;;;;;;16.70;91.90;;;;;;5116954;28;20056;-90
2022/11/03 03:30:35;;;;;;;;;;;16.70;91.80;;;;;;5118300;28;19962;-90
2022/11/03 03:33:02;;;;;;;;;;;16.80;91.60;;;;;;5117337;28;19974;-90
2022/11/03 03:35:30;;;;;;;;;;;16.90;91.50;;;;;;5117322;28;19908;-90
2022/11/03 03:38:01;;;;;;;;;;;16.90;91.30;;;;;;5117643;28;19918;-90
2022/11/03 03:40:32;;;;;;;;;;;16.90;91.10;;;;;;5117485;28;20002;-90
2022/11/03 03:42:59;;;;;;;;;;;17.00;91.00;;;;;;5116983;28;19908;-90
2022/11/03 03:45:25;;;;;;;;;;;17.00;90.80;;;;;;5116309;28;19912;-90
2022/11/03 03:47:51;;;;;;;;;;;17.10;90.70;;;;;;5115752;28;19915;-90
2022/11/03 03:50:16;;;;;;;;;;;17.10;90.60;;;;;;5115791;28;19918;-90
2022/11/03 03:52:42;;;;;;;;;;;17.10;90.50;;;;;;5114645;28;20186;-91
2022/11/03 03:55:13;;;;;;;;;;;17.10;90.40;;;;;;5114942;28;19912;-90
2022/11/03 03:57:38;;;;;;;;;;;17.10;90.40;;;;;;5114754;28;20299;-91
2022/11/03 04:00:05;;;;;;;;;;;17.10;90.40;;;;;;5114919;28;20325;-90
2022/11/03 04:02:30;;;;;;;;;;;17.10;90.40;;;;;;5115974;28;20538;-90
2022/11/03 04:04:57;;;;;;;;;;;17.10;90.40;;;;;;5115766;28;20253;-91
2022/11/03 04:10:07;;;;;;;;;;;17.10;90.40;;;;;;5116121;28;20283;-90
2022/11/03 04:23:29;;;;;;;;;;;17.00;90.70;;;;;;5113983;28;19973;-90
2022/11/03 04:25:56;;;;;;;;;;;17.00;90.80;;;;;;5112895;28;19908;-89
2022/11/03 04:28:21;;;;;;;;;;;16.90;90.80;;;;;;5114090;28;19926;-90
2022/11/03 04:30:47;;;;;;;;;;;16.90;90.80;;;;;;5112196;28;19908;-90
2022/11/03 04:33:15;;;;;;;;;;;16.90;90.90;;;;;;5112479;28;19916;-89
2022/11/03 04:35:43;;;;;;;;;;;16.90;90.90;;;;;;5111507;28;20261;-89
2022/11/03 04:38:19;;;;;;;;;;;16.90;91.00;;;;;;5110486;28;19923;-90
2022/11/03 04:40:46;;;;;;;;;;;16.90;91.10;;;;;;5111822;28;19919;-91
2022/11/03 04:43:12;;;;;;;;;;;16.80;91.10;;;;;;5112336;28;19998;-90
2022/11/03 04:45:38;;;;;;;;;;;16.80;91.20;;;;;;5111451;28;19908;-89
2022/11/03 04:48:12;;;;;;;;;;;16.80;91.20;;;;;;5112654;28;19920;-90
2022/11/03 04:50:38;;;;;;;;;;;16.80;91.30;;;;;;5114091;28;19919;-90
2022/11/03 04:53:08;;;;;;;;;;;16.80;91.40;;;;;;5112589;28;19908;-90
2022/11/03 04:55:33;;;;;;;;;;;16.70;91.40;;;;;;5112484;28;19908;-91
2022/11/03 04:58:01;;;;;;;;;;;16.80;91.50;;;;;;5112221;28;19908;-91
2022/11/03 05:00:27;;;;;;;;;;;16.70;91.50;;;;;;5111695;28;19943;-92
2022/11/03 05:02:52;;;;;;;;;;;16.70;91.50;;;;;;5112093;28;19947;-89
2022/11/03 05:05:19;;;;;;;;;;;16.70;91.60;;;;;;5112317;28;19908;-90
2022/11/03 05:07:47;;;;;;;;;;;16.70;91.60;;;;;;5111922;28;19923;-90
2022/11/03 05:10:17;;;;;;;;;;;16.70;91.60;;;;;;5111847;28;20289;-90
2022/11/03 05:12:43;;;;;;;;;;;16.70;91.70;;;;;;5112489;28;19908;-90
2022/11/03 05:15:22;;;;;;;;;;;16.70;91.70;;;;;;5114149;28;19914;-90
2022/11/03 05:17:47;;;;;;;;;;;16.70;91.70;;;;;;5113281;28;19939;-90
2022/11/03 05:20:25;;;;;;;;;;;16.70;91.70;;;;;;5112318;28;20207;-90
2022/11/03 05:22:50;;;;;;;;;;;16.70;91.70;;;;;;5110439;28;19908;-90
2022/11/03 05:25:33;;;;;;;;;;;16.70;91.70;;;;;;5111571;28;20053;-89
2022/11/03 05:27:58;;;;;;;;;;;16.70;91.60;;;;;;5112744;28;19911;-89
2022/11/03 05:30:24;;;;;;;;;;;16.80;91.60;;;;;;5114692;28;19918;-90
2022/11/03 05:32:49;;;;;;;;;;;16.80;91.60;;;;;;5113638;28;19922;-89
2022/11/03 05:35:20;;;;;;;;;;;16.80;91.50;;;;;;5113907;28;19907;-89
2022/11/03 05:37:45;;;;;;;;;;;16.80;91.50;;;;;;5112001;28;20073;-89
2022/11/03 05:40:22;;;;;;;;;;;16.80;91.40;;;;;;5113686;28;20017;-90
2022/11/03 05:43:07;;;;;;;;;;;16.80;91.40;;;;;;5113152;28;19907;-90
2022/11/03 05:45:34;;;;;;;;;;;16.80;91.30;;;;;;5112964;28;19915;-90
2022/11/03 05:48:00;;;;;;;;;;;16.90;91.30;;;;;;5112435;28;20347;-91
2022/11/03 05:50:28;;;;;;;;;;;16.80;91.30;;;;;;5113020;28;19916;-90
2022/11/03 05:52:55;;;;;;;;;;;16.80;91.20;;;;;;5113700;28;19908;-90
2022/11/03 05:55:26;;;;;;;;;;;16.90;91.30;;;;;;5112370;28;20150;-91
2022/11/03 05:57:57;;;;;;;;;;;16.90;91.30;;;;;;5112849;28;20002;-90
2022/11/03 06:00:56;;;;;;;;;;;16.90;91.30;;;;;;5114991;28;19915;-89
2022/11/03 06:03:27;;;;;;;;;;;16.90;91.30;;;;;;5111675;28;19935;-90
2022/11/03 06:05:56;;;;;;;;;;;16.80;91.30;;;;;;5112937;28;19968;-90
2022/11/03 06:08:26;;;;;;;;;;;16.90;91.30;;;;;;5109570;28;20315;-89
2022/11/03 06:10:53;;;;;;;;;;;16.90;91.30;;;;;;5110783;28;20376;-89
2022/11/03 06:13:25;;;;;;;;;;;16.90;91.30;;;;;;5111917;28;19912;-90
2022/11/03 06:15:55;;;;;;;;;;;16.90;91.30;;;;;;5110777;28;19919;-89
2022/11/03 06:18:23;;;;;;;;;;;16.80;91.30;;;;;;5110072;28;19916;-89
2022/11/03 06:20:53;;;;;;;;;;;16.80;91.30;;;;;;5109285;28;19908;-89
2022/11/03 06:23:19;;;;;;;;;;;16.90;91.40;;;;;;5110362;28;19908;-89
2022/11/03 06:25:45;;;;;;;;;;;16.80;91.40;;;;;;5109365;28;20311;-89
2022/11/03 06:28:17;;;;;;;;;;;16.80;91.40;;;;;;5108596;28;19912;-89
2022/11/03 06:30:43;;;;;;;;;;;16.80;91.70;;;;;;5110118;28;19908;-89
2022/11/03 06:33:18;;;;;;;;;;;16.80;91.40;;;;;;5110188;28;19999;-88
2022/11/03 06:35:44;;;;;;;;;;;16.80;91.50;;;;;;5105655;28;20014;-89
2022/11/03 06:38:30;;;;;;;;;;;16.80;91.70;;;;;;5107775;28;20346;-88
2022/11/03 06:40:56;;;;;;;;;;;16.80;92.10;;;;;;5108339;28;20182;-90
2022/11/03 06:43:30;;;;;;;;;;;16.80;92.20;;;;;;5106746;28;20478;-89
2022/11/03 06:46:00;;;;;;;;;;;16.80;92.40;;;;;;5106906;28;19908;-89
2022/11/03 06:48:27;;;;;;;;;;;16.80;92.60;;;;;;5107261;28;20022;-89
2022/11/03 06:50:53;;;;;;;;;;;16.80;92.60;;;;;;5107789;28;19908;-89
2022/11/03 06:53:21;;;;;;;;;;;16.80;92.50;;;;;;5103680;28;19907;-88
2022/11/03 06:55:47;;;;;;;;;;;16.80;92.40;;;;;;5105778;28;20071;-90
2022/11/03 06:58:15;;;;;;;;;;;16.80;92.40;;;;;;5106092;28;20047;-89
2022/11/03 07:00:42;;;;;;;;;;;16.80;92.40;;;;;;5104939;28;19919;-89
2022/11/03 07:03:13;;;;;;;;;;;16.80;92.40;;;;;;5104580;28;19938;-89
2022/11/03 07:05:39;;;;;;;;;;;16.80;92.40;;;;;;5104890;28;20239;-89
2022/11/03 07:08:25;;;;;;;;;;;16.90;92.50;;;;;;5105397;28;19916;-89
2022/11/03 07:11:00;;;;;;;;;;;16.90;92.50;;;;;;5106105;28;19915;-89
2022/11/03 07:13:26;;;;;;;;;;;16.80;92.60;;;;;;5107118;28;20154;-89
2022/11/03 07:15:51;;;;;;;;;;;16.80;92.50;;;;;;5104881;28;20033;-90
2022/11/03 07:18:17;;;;;;;;;;;16.80;92.60;;;;;;5107748;28;20014;-89
2022/11/03 07:20:43;;;;;;;;;;;16.80;92.60;;;;;;5106264;28;19908;-90
2022/11/03 07:23:11;;;;;;;;;;;16.80;92.60;;;;;;5106095;28;19918;-89
2022/11/03 07:25:37;;;;;;;;;;;16.80;92.60;;;;;;5108397;28;19912;-89
2022/11/03 07:28:03;;;;;;;;;;;16.80;92.60;;;;;;5108133;28;20009;-90
2022/11/03 07:30:32;;;;;;;;;;;16.80;92.60;;;;;;5108313;28;19919;-90
2022/11/03 07:33:08;;;;;;;;;;;16.80;92.90;;;;;;5107013;28;20003;-90
2022/11/03 07:35:35;;;;;;;;;;;16.80;92.80;;;;;;5106528;28;20205;-90
2022/11/03 07:38:10;;;;;;;;;;;16.80;92.90;;;;;;5105905;28;19972;-89
2022/11/03 07:40:36;;;;;;;;;;;16.80;92.80;;;;;;5105743;28;20007;-89
2022/11/03 07:43:10;;;;;;;;;;;16.80;92.80;;;;;;5106750;28;20014;-89
2022/11/03 07:45:41;;;;;;;;;;;16.90;92.80;;;;;;5107924;28;20126;-89
2022/11/03 07:48:15;;;;;;;;;;;16.90;92.70;;;;;;5107460;28;20273;-89
2022/11/03 07:50:41;;;;;;;;;;;17.00;92.60;;;;;;5106164;28;19915;-89
2022/11/03 07:53:16;;;;;;;;;;;17.00;92.40;;;;;;5105396;28;19908;-88
2022/11/03 07:55:43;;;;;;;;;;;17.10;92.20;;;;;;5108544;28;19908;-89
2022/11/03 07:58:35;;;;;;;;;;;17.30;91.90;;;;;;5111478;28;19912;-89
2022/11/03 08:01:02;;;;;;;;;;;17.30;91.60;;;;;;5104570;28;19912;-89
2022/11/03 08:03:32;;;;;;;;;;;17.50;91.30;;;;;;5105264;28;20038;-90
2022/11/03 08:05:58;;;;;;;;;;;18.00;90.30;;;;;;5105020;28;20316;-89
2022/11/03 08:08:24;;;;;;;;;;;18.70;86.70;;;;;;5106605;28;19912;-89
2022/11/03 08:10:49;;;;;;;;;;;19.00;82.80;;;;;;5105090;28;19912;-89
2022/11/03 08:13:15;;;;;;;;;;;18.90;81.70;;;;;;5104676;28;20097;-89
2022/11/03 08:15:41;;;;;;;;;;;18.90;82.00;;;;;;5105254;28;19919;-90
2022/11/03 08:18:06;;;;;;;;;;;18.80;81.90;;;;;;5106457;28;20158;-89
2022/11/03 08:20:32;;;;;;;;;;;18.90;81.80;;;;;;5105154;28;20338;-89
2022/11/03 08:22:57;;;;;;;;;;;19.20;80.00;;;;;;5105297;28;20246;-89
2022/11/03 08:25:23;;;;;;;;;;;19.10;79.40;;;;;;5105692;28;19952;-89
2022/11/03 08:27:48;;;;;;;;;;;19.10;79.60;;;;;;5104705;28;19977;-89
2022/11/03 08:30:15;;;;;;;;;;;19.40;77.80;;;;;;5105801;28;20151;-88
2022/11/03 08:32:41;;;;;;;;;;;19.30;77.60;;;;;;5106693;28;20334;-89
2022/11/03 08:35:06;;;;;;;;;;;19.10;78.20;;;;;;5106168;28;19908;-90
2022/11/03 08:37:32;;;;;;;;;;;18.90;79.30;;;;;;5106261;28;19918;-89
2022/11/03 08:39:57;;;;;;;;;;;18.80;80.50;;;;;;5108378;28;19919;-88
2022/11/03 08:42:23;;;;;;;;;;;18.60;81.60;;;;;;5108847;28;19919;-90
2022/11/03 08:44:49;;;;;;;;;;;18.50;82.60;;;;;;5106262;28;19908;-89
2022/11/03 08:47:14;;;;;;;;;;;18.40;83.50;;;;;;5106590;28;20189;-90
2022/11/03 08:49:40;;;;;;;;;;;18.30;84.10;;;;;;5106320;28;20193;-89
2022/11/03 08:52:06;;;;;;;;;;;18.30;84.60;;;;;;5105987;28;19942;-89
2022/11/03 08:54:31;;;;;;;;;;;18.20;85.10;;;;;;5103747;28;19938;-89
2022/11/03 08:56:57;;;;;;;;;;;18.20;85.60;;;;;;5106798;28;19908;-90
2022/11/03 08:59:22;;;;;;;;;;;18.30;85.20;;;;;;5106851;28;19918;-89
2022/11/03 09:01:49;;;;;;;;;;;18.50;84.60;;;;;;5109105;28;19939;-89
2022/11/03 09:04:15;;;;;;;;;;;18.50;84.30;;;;;;5111247;28;20356;-89
2022/11/03 09:06:40;;;;;;;;;;;18.60;84.60;;;;;;5111816;28;20270;-89
2022/11/03 09:09:06;;;;;;;;;;;18.70;83.30;;;;;;5110022;28;19966;-89
2022/11/03 09:11:32;;;;;;;;;;;18.90;82.10;;;;;;5109812;28;19908;-89
2022/11/03 09:13:58;;;;;;;;;;;19.00;81.00;;;;;;5107854;28;19968;-89
2022/11/03 09:16:23;;;;;;;;;;;19.10;80.60;;;;;;5107619;28;19908;-87
2022/11/03 09:18:49;;;;;;;;;;;19.30;79.60;;;;;;5107356;28;19926;-89
2022/11/03 09:21:15;;;;;;;;;;;19.50;77.90;;;;;;5108636;28;20294;-90
2022/11/03 09:23:40;;;;;;;;;;;19.50;77.10;;;;;;5108649;28;20285;-89
2022/11/03 09:26:06;;;;;;;;;;;19.50;76.70;;;;;;5109137;28;20058;-89
2022/11/03 09:28:31;;;;;;;;;;;19.40;77.00;;;;;;5110197;28;19922;-89
2022/11/03 09:30:57;;;;;;;;;;;19.30;77.70;;;;;;5108307;28;19916;-89
2022/11/03 09:33:23;;;;;;;;;;;19.20;78.20;;;;;;5109155;28;19926;-89
2022/11/03 09:35:48;;;;;;;;;;;19.20;78.10;;;;;;5108954;28;19943;-89
2022/11/03 09:38:14;;;;;;;;;;;19.20;78.40;;;;;;5107903;28;19916;-90
2022/11/03 09:40:40;;;;;;;;;;;19.20;78.70;;;;;;5108548;28;20071;-90
2022/11/03 09:43:05;;;;;;;;;;;19.10;78.80;;;;;;5108269;28;19955;-89
2022/11/03 09:45:31;;;;;;;;;;;19.10;79.10;;;;;;5109315;28;19919;-90
2022/11/03 09:47:57;;;;;;;;;;;19.10;79.00;;;;;;5110581;28;20281;-90
2022/11/03 09:50:22;;;;;;;;;;;19.10;79.40;;;;;;5109788;28;19912;-89
2022/11/03 09:52:50;;;;;;;;;;;19.20;79.30;;;;;;5111921;28;19969;-89
2022/11/03 09:55:20;;;;;;;;;;;19.10;79.60;;;;;;5111106;28;20260;-90
2022/11/03 09:57:46;;;;;;;;;;;19.10;79.90;;;;;;5113499;28;19912;-90
2022/11/03 10:00:17;;;;;;;;;;;19.00;80.70;;;;;;5100974;28;19961;-90
2022/11/03 10:02:42;;;;;;;;;;;18.90;81.50;;;;;;5107568;28;19972;-90
2022/11/03 10:05:11;;;;;;;;;;;18.80;81.90;;;;;;5115470;28;19912;-90
2022/11/03 10:07:37;;;;;;;;;;;18.80;82.40;;;;;;5100973;28;19974;-89
2022/11/03 10:10:03;;;;;;;;;;;18.80;82.60;;;;;;5097456;28;20874;-90
2022/11/03 10:12:30;;;;;;;;;;;18.70;83.40;;;;;;5110389;28;19911;-90
2022/11/03 10:14:56;;;;;;;;;;;18.60;83.80;;;;;;5116930;28;20173;-90
2022/11/03 10:17:25;;;;;;;;;;;18.60;84.00;;;;;;5114932;28;19961;-90
2022/11/03 10:19:51;;;;;;;;;;;18.60;84.10;;;;;;5115278;28;19998;-89
2022/11/03 10:22:19;;;;;;;;;;;18.60;84.30;;;;;;5102370;28;20346;-89
2022/11/03 10:25:12;;;;;;;;;;;18.50;84.40;;;;;;5104618;28;20205;-90
2022/11/03 10:27:38;;;;;;;;;;;18.50;84.50;;;;;;5084656;28;19915;-90
2022/11/03 10:30:06;;;;;;;;;;;18.50;84.80;;;;;;5116570;28;20275;-89
2022/11/03 10:32:34;;;;;;;;;;;18.40;85.50;;;;;;5112948;28;19916;-89
2022/11/03 10:35:00;;;;;;;;;;;18.40;85.60;;;;;;5116485;28;19957;-89
2022/11/03 10:37:27;;;;;;;;;;;18.40;85.90;;;;;;5104284;28;19916;-89
2022/11/03 10:39:53;;;;;;;;;;;18.30;85.90;;;;;;5097733;28;19908;-89
2022/11/03 10:42:29;;;;;;;;;;;18.30;86.10;;;;;;5105254;28;20292;-89
2022/11/03 10:45:13;;;;;;;;;;;18.30;86.10;;;;;;5115909;28;19916;-89
2022/11/03 10:47:39;;;;;;;;;;;18.30;86.20;;;;;;5115062;28;19923;-89
2022/11/03 10:50:22;;;;;;;;;;;18.30;86.30;;;;;;5114199;28;19969;-89
2022/11/03 10:52:48;;;;;;;;;;;18.30;86.40;;;;;;5098737;28;19912;-89
2022/11/03 10:55:14;;;;;;;;;;;18.30;86.60;;;;;;5095129;28;19961;-89
2022/11/03 10:57:41;;;;;;;;;;;18.30;86.70;;;;;;5095524;28;19908;-89
2022/11/03 11:00:11;;;;;;;;;;;18.30;86.80;;;;;;5095303;28;19920;-90
2022/11/03 11:02:41;;;;;;;;;;;18.30;86.80;;;;;;5087094;28;19908;-89
2022/11/03 11:05:22;;;;;;;;;;;18.30;86.80;;;;;;5087613;28;19920;-90
2022/11/03 11:07:52;;;;;;;;;;;18.20;86.90;;;;;;5087457;28;19970;-89
2022/11/03 11:10:17;;;;;;;;;;;18.20;87.10;;;;;;5101964;28;19912;-88
2022/11/03 11:13:02;;;;;;;;;;;18.20;87.30;;;;;;5090674;28;20150;-89
2022/11/03 11:15:41;;;;;;;;;;;18.20;87.40;;;;;;5086816;28;19916;-88
2022/11/03 11:18:07;;;;;;;;;;;18.10;87.50;;;;;;5086590;28;19919;-90
2022/11/03 11:20:41;;;;;;;;;;;18.10;87.90;;;;;;5086992;28;19908;-89
2022/11/03 11:23:25;;;;;;;;;;;18.10;88.80;;;;;;5087113;28;19961;-90
2022/11/03 11:26:09;;;;;;;;;;;18.10;89.00;;;;;;5090165;28;19943;-90
2022/11/03 11:28:36;;;;;;;;;;;18.10;88.60;;;;;;5085331;28;19966;-90
2022/11/03 11:31:21;;;;;;;;;;;18.10;88.60;;;;;;5086870;28;19912;-89
2022/11/03 11:33:48;;;;;;;;;;;18.20;88.70;;;;;;5086950;28;20156;-89
2022/11/03 11:36:23;;;;;;;;;;;18.20;88.60;;;;;;5083312;28;19912;-89
2022/11/03 11:38:54;;;;;;;;;;;18.30;88.40;;;;;;5085285;28;19912;-89
2022/11/03 11:41:38;;;;;;;;;;;18.30;88.00;;;;;;5087202;28;19919;-89
2022/11/03 11:44:23;;;;;;;;;;;18.40;87.90;;;;;;5086764;28;20002;-89
2022/11/03 11:46:49;;;;;;;;;;;18.40;87.50;;;;;;5088360;28;19908;-90
2022/11/03 11:49:15;;;;;;;;;;;18.50;87.40;;;;;;5087687;28;20051;-89
2022/11/03 11:51:41;;;;;;;;;;;18.50;87.20;;;;;;5094099;28;19915;-89
2022/11/03 11:54:07;;;;;;;;;;;18.50;87.10;;;;;;5086811;28;19973;-88
2022/11/03 11:56:39;;;;;;;;;;;18.50;87.00;;;;;;5087110;28;20325;-89
2022/11/03 11:59:14;;;;;;;;;;;18.50;87.00;;;;;;5085380;28;19947;-89
2022/11/03 12:01:40;;;;;;;;;;;18.50;87.10;;;;;;5086066;28;20123;-88
2022/11/03 12:04:13;;;;;;;;;;;18.50;87.10;;;;;;5087318;28;20042;-88
2022/11/03 12:06:39;;;;;;;;;;;18.50;87.30;;;;;;5086106;28;19949;-89
2022/11/03 12:09:11;;;;;;;;;;;18.50;87.50;;;;;;5084030;28;20027;-88
2022/11/03 12:11:47;;;;;;;;;;;18.50;87.70;;;;;;5082053;28;19919;-89
2022/11/03 12:14:39;;;;;;;;;;;18.40;87.70;;;;;;5086114;28;20167;-89
2022/11/03 12:17:17;;;;;;;;;;;18.40;87.80;;;;;;5083029;28;20017;-91
2022/11/03 12:19:43;;;;;;;;;;;18.40;88.10;;;;;;5083161;28;20350;-89
2022/11/03 12:22:10;;;;;;;;;;;18.40;88.20;;;;;;5085540;28;19973;-90
2022/11/03 12:24:37;;;;;;;;;;;18.40;88.30;;;;;;5086779;28;19919;-88
2022/11/03 12:27:16;;;;;;;;;;;18.40;88.30;;;;;;5085482;28;19974;-88
2022/11/03 12:29:41;;;;;;;;;;;18.40;88.20;;;;;;5085507;28;19919;-89
2022/11/03 12:32:07;;;;;;;;;;;18.40;88.10;;;;;;5082746;28;19912;-89
2022/11/03 12:34:32;;;;;;;;;;;18.40;87.80;;;;;;5081879;28;20001;-89
2022/11/03 12:36:58;;;;;;;;;;;18.50;87.60;;;;;;5086458;28;20151;-92
2022/11/03 12:39:24;;;;;;;;;;;18.50;88.00;;;;;;5087208;28;19940;-88
2022/11/03 12:41:49;;;;;;;;;;;18.50;87.20;;;;;;5086009;28;20098;-89
2022/11/03 12:44:15;;;;;;;;;;;18.50;87.00;;;;;;5087384;28;19915;-89
2022/11/03 12:46:41;;;;;;;;;;;18.50;86.90;;;;;;5088311;28;20197;-89
2022/11/03 12:49:07;;;;;;;;;;;18.50;87.00;;;;;;5087195;28;19942;-89
2022/11/03 12:51:32;;;;;;;;;;;18.50;87.00;;;;;;5086330;28;19919;-88
2022/11/03 12:53:58;;;;;;;;;;;18.50;86.70;;;;;;5085139;28;19912;-89
2022/11/03 12:56:24;;;;;;;;;;;18.50;86.80;;;;;;5085543;28;19908;-90
2022/11/03 12:58:49;;;;;;;;;;;18.50;86.90;;;;;;5084373;28;19922;-88
2022/11/03 13:01:15;;;;;;;;;;;18.50;86.50;;;;;;5086992;28;20204;-90
2022/11/03 13:03:42;;;;;;;;;;;18.50;86.60;;;;;;5084252;28;19908;-91
2022/11/03 13:06:09;;;;;;;;;;;18.50;87.00;;;;;;5087101;28;19908;-89
2022/11/03 13:08:34;;;;;;;;;;;18.40;87.00;;;;;;5088378;28;20047;-90
2022/11/03 13:11:00;;;;;;;;;;;18.40;87.70;;;;;;5087028;28;19915;-88
2022/11/03 13:13:26;;;;;;;;;;;18.40;87.90;;;;;;5088034;28;20007;-89
2022/11/03 13:15:52;;;;;;;;;;;18.40;88.20;;;;;;5085878;28;19944;-89
2022/11/03 13:18:18;;;;;;;;;;;18.40;88.40;;;;;;5088648;28;20285;-89
2022/11/03 13:20:44;;;;;;;;;;;18.40;88.60;;;;;;5087535;28;20022;-89
2022/11/03 13:23:10;;;;;;;;;;;18.40;88.50;;;;;;5088367;28;19926;-88
2022/11/03 13:25:35;;;;;;;;;;;18.30;88.30;;;;;;5088138;28;19955;-89
2022/11/03 13:28:02;;;;;;;;;;;18.40;88.30;;;;;;5088742;28;19922;-88
2022/11/03 13:30:28;;;;;;;;;;;18.30;88.40;;;;;;5087601;28;20239;-89
2022/11/03 13:32:54;;;;;;;;;;;18.30;88.20;;;;;;5085851;28;19968;-89
2022/11/03 13:35:20;;;;;;;;;;;18.30;88.10;;;;;;5086133;28;20166;-88
2022/11/03 13:37:45;;;;;;;;;;;18.30;88.60;;;;;;5084967;28;20318;-89
2022/11/03 13:40:12;;;;;;;;;;;18.30;88.80;;;;;;5082870;28;20171;-88
2022/11/03 13:42:37;;;;;;;;;;;18.20;89.00;;;;;;5084377;28;19951;-89
2022/11/03 13:45:03;;;;;;;;;;;18.30;89.30;;;;;;5085525;28;19998;-89
2022/11/03 13:47:29;;;;;;;;;;;18.20;89.20;;;;;;5086129;28;19912;-88
2022/11/03 13:49:55;;;;;;;;;;;18.20;89.50;;;;;;5087692;28;20094;-89
2022/11/03 13:52:20;;;;;;;;;;;18.20;90.10;;;;;;5084198;28;20420;-89
2022/11/03 13:54:46;;;;;;;;;;;18.20;89.90;;;;;;5084763;28;20208;-88
2022/11/03 13:57:12;;;;;;;;;;;18.20;90.00;;;;;;5088232;28;19952;-89
2022/11/03 13:59:37;;;;;;;;;;;18.10;90.10;;;;;;5087527;28;20279;-90
2022/11/03 14:02:04;;;;;;;;;;;18.10;90.10;;;;;;5086046;28;19919;-89
2022/11/03 14:04:30;;;;;;;;;;;18.10;90.20;;;;;;5086718;28;19918;-89
2022/11/03 14:06:56;;;;;;;;;;;18.10;90.40;;;;;;5086217;28;19908;-89
2022/11/03 14:09:21;;;;;;;;;;;18.10;90.50;;;;;;5083577;28;19912;-89
2022/11/03 14:14:31;;;;;;;;;;;18.00;90.70;;;;;;5082897;28;20272;-89
2022/11/03 14:16:57;;;;;;;;;;;18.00;90.70;;;;;;5083566;28;20099;-90
2022/11/03 14:19:23;;;;;;;;;;;18.00;90.80;;;;;;5082951;28;19916;-89
2022/11/03 14:21:49;;;;;;;;;;;18.00;90.90;;;;;;5086534;28;20175;-89
2022/11/03 14:24:14;;;;;;;;;;;18.00;91.00;;;;;;5085632;28;19989;-89
2022/11/03 14:26:40;;;;;;;;;;;18.00;91.20;;;;;;5086878;28;20240;-89
2022/11/03 14:29:06;;;;;;;;;;;17.90;91.20;;;;;;5087024;28;19955;-89
2022/11/03 14:31:32;;;;;;;;;;;17.90;91.30;;;;;;5086926;28;20266;-89
2022/11/03 14:33:57;;;;;;;;;;;17.90;91.30;;;;;;5086307;28;19923;-89
2022/11/03 14:36:23;;;;;;;;;;;17.90;91.40;;;;;;5085542;28;19939;-89
2022/11/03 14:38:49;;;;;;;;;;;17.90;91.50;;;;;;5084228;28;20293;-89
2022/11/03 14:43:59;;;;;;;;;;;17.90;91.60;;;;;;5085236;28;20223;-90
2022/11/03 14:46:25;;;;;;;;;;;17.80;91.60;;;;;;5084744;28;20010;-89
2022/11/03 14:48:51;;;;;;;;;;;17.80;91.60;;;;;;5082235;28;20282;-89